createdAt,value
2022-12-20T00:02:01.771Z,76.96
2022-12-20T00:04:34.090Z,76.97
2022-12-20T00:07:07.142Z,77.12
2022-12-20T00:09:39.152Z,77.19
2022-12-20T00:12:11.409Z,77.28
2022-12-20T00:14:43.324Z,77.27
2022-12-20T00:17:15.301Z,77.29
2022-12-20T00:19:47.303Z,77.19
2022-12-20T00:22:19.308Z,77.06
2022-12-20T00:24:51.413Z,77.05
2022-12-20T00:27:23.358Z,77.07
2022-12-20T00:29:55.702Z,76.78
2022-12-20T00:32:28.961Z,76.85
2022-12-20T00:35:00.991Z,76.31
2022-12-20T00:37:33.419Z,76.11
2022-12-20T00:40:07.472Z,76.09
2022-12-20T00:42:38.635Z,76.31
2022-12-20T00:45:10.961Z,76.26
2022-12-20T00:47:43.134Z,76.02
2022-12-20T00:50:15.120Z,76.14
2022-12-20T00:52:47.116Z,76.01
2022-12-20T00:55:19.373Z,76.05
2022-12-20T00:57:51.256Z,76.05
2022-12-20T01:00:23.699Z,76.05
2022-12-20T01:02:55.828Z,75.61
2022-12-20T01:05:27.884Z,75.64
2022-12-20T01:08:00.305Z,75.12
2022-12-20T01:10:32.786Z,74.98
2022-12-20T01:13:05.844Z,75.23
2022-12-20T01:15:37.887Z,75.53
2022-12-20T01:18:09.892Z,75.66
2022-12-20T01:20:41.966Z,75.89
2022-12-20T01:23:13.968Z,75.88
2022-12-20T01:25:45.996Z,76.03
2022-12-20T01:28:18.225Z,75.89
2022-12-20T01:30:50.269Z,75.74
2022-12-20T01:33:23.378Z,75.68
2022-12-20T01:36:00.291Z,75.83
2022-12-20T01:38:33.384Z,75.80
2022-12-20T01:41:05.993Z,75.31
2022-12-20T01:43:58.765Z,75.40
2022-12-20T01:46:33.903Z,75.29
2022-12-20T01:49:11.525Z,75.46
2022-12-20T01:51:46.256Z,75.23
2022-12-20T01:54:24.126Z,75.53
2022-12-20T01:57:07.811Z,75.68
2022-12-20T01:59:42.947Z,75.92
2022-12-20T02:02:16.834Z,76.00
2022-12-20T02:04:48.928Z,75.86
2022-12-20T02:07:24.268Z,75.99
2022-12-20T02:09:58.181Z,75.99
2022-12-20T02:12:45.093Z,75.91
2022-12-20T02:15:24.069Z,75.93
2022-12-20T02:18:30.643Z,75.84
2022-12-20T02:21:18.161Z,75.65
2022-12-20T02:24:10.701Z,75.50
2022-12-20T02:27:10.719Z,75.31
2022-12-20T02:30:01.887Z,75.13
2022-12-20T02:32:46.150Z,74.68
2022-12-20T02:35:21.608Z,74.91
2022-12-20T02:37:57.025Z,74.70
2022-12-20T02:40:35.062Z,74.90
2022-12-20T02:43:12.044Z,74.89
2022-12-20T02:45:44.106Z,75.10
2022-12-20T02:48:16.173Z,75.15
2022-12-20T02:50:51.129Z,75.13
2022-12-20T02:53:24.828Z,75.05
2022-12-20T02:56:08.565Z,75.11
2022-12-20T02:58:43.788Z,75.07
2022-12-20T03:01:24.876Z,75.24
2022-12-20T03:04:00.385Z,75.31
2022-12-20T03:06:32.742Z,75.35
2022-12-20T03:09:05.638Z,75.23
2022-12-20T03:11:39.187Z,75.14
2022-12-20T03:14:11.275Z,75.17
2022-12-20T03:16:43.277Z,75.02
2022-12-20T03:19:15.319Z,74.87
2022-12-20T03:21:47.980Z,74.77
2022-12-20T03:24:20.135Z,74.44
2022-12-20T03:26:52.725Z,74.06
2022-12-20T03:29:26.286Z,73.99
2022-12-20T03:31:58.544Z,73.74
2022-12-20T03:34:31.579Z,73.86
2022-12-20T03:37:04.883Z,73.95
2022-12-20T03:39:36.883Z,74.10
2022-12-20T03:42:09.464Z,74.22
2022-12-20T03:44:41.533Z,74.21
2022-12-20T03:47:15.155Z,74.16
2022-12-20T03:49:49.115Z,73.99
2022-12-20T03:52:21.438Z,74.09
2022-12-20T03:54:54.012Z,74.02
2022-12-20T03:57:28.660Z,74.13
2022-12-20T04:00:01.037Z,73.62
2022-12-20T04:02:34.693Z,73.27
2022-12-20T04:05:08.923Z,73.53
2022-12-20T04:07:42.364Z,73.67
2022-12-20T04:10:14.723Z,73.73
2022-12-20T04:12:47.105Z,73.60
2022-12-20T04:15:20.120Z,73.16
2022-12-20T04:17:52.982Z,72.89
2022-12-20T04:20:25.755Z,72.35
2022-12-20T04:23:02.283Z,71.92
2022-12-20T04:25:34.805Z,71.91
2022-12-20T04:28:07.436Z,71.93
2022-12-20T04:30:40.141Z,71.36
2022-12-20T04:33:12.702Z,71.05
2022-12-20T04:35:46.327Z,71.07
2022-12-20T04:38:19.403Z,71.10
2022-12-20T04:40:56.059Z,70.99
2022-12-20T04:43:29.193Z,71.10
2022-12-20T04:46:02.636Z,71.12
2022-12-20T04:48:55.808Z,70.78
2022-12-20T04:51:11.019Z,70.62
2022-12-20T04:53:49.019Z,70.40
2022-12-20T04:56:31.783Z,70.34
2022-12-20T04:59:05.438Z,69.60
2022-12-20T05:01:38.802Z,69.40
2022-12-20T05:04:12.367Z,69.67
2022-12-20T05:06:45.417Z,69.88
2022-12-20T05:09:18.986Z,69.92
2022-12-20T05:11:51.603Z,70.16
2022-12-20T05:14:24.564Z,70.31
2022-12-20T05:16:57.127Z,70.46
2022-12-20T05:19:32.679Z,70.47
2022-12-20T05:22:23.408Z,70.52
2022-12-20T05:25:14.954Z,69.96
2022-12-20T05:27:47.455Z,69.59
2022-12-20T05:30:20.447Z,69.69
2022-12-20T05:32:52.908Z,69.41
2022-12-20T05:35:25.945Z,69.35
2022-12-20T05:37:59.959Z,69.47
2022-12-20T05:40:33.560Z,69.51
2022-12-20T05:43:06.799Z,69.38
2022-12-20T05:45:50.890Z,69.12
2022-12-20T05:48:24.616Z,68.73
2022-12-20T05:51:00.112Z,68.37
2022-12-20T05:53:37.108Z,68.23
2022-12-20T05:56:11.622Z,67.74
2022-12-20T05:58:45.740Z,68.03
2022-12-20T06:01:18.877Z,68.46
2022-12-20T06:03:51.434Z,67.88
2022-12-20T06:06:23.617Z,67.89
2022-12-20T06:08:56.525Z,67.98
2022-12-20T06:11:36.029Z,68.04
2022-12-20T06:14:12.517Z,67.86
2022-12-20T06:16:48.071Z,67.77
2022-12-20T06:19:22.579Z,67.76
2022-12-20T06:21:57.598Z,67.76
2022-12-20T06:24:31.188Z,67.94
2022-12-20T06:27:04.926Z,68.04
2022-12-20T06:29:38.067Z,68.02
2022-12-20T06:32:11.835Z,68.01
2022-12-20T06:34:44.502Z,67.99
2022-12-20T06:37:16.963Z,68.01
2022-12-20T06:39:49.920Z,67.67
2022-12-20T06:42:22.344Z,67.30
2022-12-20T06:44:55.440Z,66.77
2022-12-20T06:47:27.959Z,66.43
2022-12-20T06:50:00.867Z,65.99
2022-12-20T06:52:33.811Z,65.34
2022-12-20T06:55:06.692Z,65.00
2022-12-20T06:57:40.533Z,64.92
2022-12-20T07:00:13.928Z,64.54
2022-12-20T07:02:46.453Z,64.35
2022-12-20T07:05:18.749Z,64.41
2022-12-20T07:07:50.758Z,64.50
2022-12-20T07:10:23.330Z,64.61
2022-12-20T07:12:56.412Z,64.89
2022-12-20T07:15:28.721Z,64.60
2022-12-20T07:18:01.518Z,64.02
2022-12-20T07:20:34.037Z,64.24
2022-12-20T07:23:06.740Z,64.40
2022-12-20T07:25:39.110Z,64.58
2022-12-20T07:28:13.713Z,64.86
2022-12-20T07:30:46.079Z,65.26
2022-12-20T07:33:18.749Z,65.52
2022-12-20T07:35:54.777Z,64.85
2022-12-20T07:38:25.862Z,64.59
2022-12-20T07:40:58.272Z,64.26
2022-12-20T07:43:30.923Z,64.23
2022-12-20T07:46:03.438Z,63.99
2022-12-20T07:48:36.270Z,63.21
2022-12-20T07:51:12.481Z,61.79
2022-12-20T07:53:48.178Z,61.24
2022-12-20T07:56:22.787Z,60.22
2022-12-20T07:58:58.856Z,59.55
2022-12-20T08:01:31.910Z,59.37
2022-12-20T08:04:07.139Z,58.93
2022-12-20T08:06:41.162Z,59.47
2022-12-20T08:09:14.162Z,59.56
2022-12-20T08:11:49.742Z,59.24
2022-12-20T08:14:23.954Z,58.25
2022-12-20T08:16:56.460Z,56.94
2022-12-20T08:19:32.519Z,55.33
2022-12-20T08:22:02.856Z,54.19
2022-12-20T08:24:35.575Z,54.08
2022-12-20T08:27:07.709Z,54.88
2022-12-20T08:29:40.604Z,55.00
2022-12-20T08:32:14.481Z,55.65
2022-12-20T08:34:46.776Z,56.65
2022-12-20T08:37:19.369Z,56.20
2022-12-20T08:39:51.492Z,55.50
2022-12-20T08:42:23.593Z,54.83
2022-12-20T08:44:57.670Z,53.32
2022-12-20T08:47:31.638Z,53.96
2022-12-20T08:50:04.297Z,54.46
2022-12-20T08:52:37.022Z,55.06
2022-12-20T08:55:12.990Z,55.56
2022-12-20T08:57:44.958Z,56.17
2022-12-20T09:00:18.445Z,57.16
2022-12-20T09:02:52.344Z,57.71
2022-12-20T09:05:23.875Z,57.87
2022-12-20T09:07:56.357Z,58.37
2022-12-20T09:10:29.368Z,58.00
2022-12-20T09:13:01.563Z,57.82
2022-12-20T09:15:35.082Z,58.54
2022-12-20T09:18:07.535Z,56.82
2022-12-20T09:20:47.573Z,56.11
2022-12-20T09:23:19.739Z,55.46
2022-12-20T09:25:53.921Z,53.63
2022-12-20T09:28:26.403Z,52.56
2022-12-20T09:31:01.074Z,53.16
2022-12-20T09:33:34.593Z,54.29
2022-12-20T09:36:07.752Z,53.82
2022-12-20T09:38:40.205Z,54.75
2022-12-20T09:41:22.959Z,55.31
2022-12-20T09:43:56.243Z,55.79
2022-12-20T09:46:29.774Z,56.34
2022-12-20T09:49:01.834Z,56.98
2022-12-20T09:52:03.857Z,57.95
2022-12-20T09:54:45.142Z,57.70
2022-12-20T09:57:55.081Z,57.70
2022-12-20T10:00:28.369Z,58.58
2022-12-20T10:03:09.992Z,58.74
2022-12-20T10:05:52.988Z,58.62
2022-12-20T10:08:31.470Z,58.67
2022-12-20T10:11:15.609Z,58.70
2022-12-20T10:13:54.409Z,59.21
2022-12-20T10:16:34.098Z,58.58
2022-12-20T10:19:34.065Z,58.44
2022-12-20T10:22:17.862Z,59.09
2022-12-20T10:25:02.157Z,59.60
2022-12-20T10:27:36.112Z,60.37
2022-12-20T10:30:08.797Z,60.49
2022-12-20T10:32:41.877Z,60.78
2022-12-20T10:35:25.794Z,60.87
2022-12-20T10:38:08.690Z,60.97
2022-12-20T10:41:20.177Z,60.99
2022-12-20T10:43:28.639Z,60.36
2022-12-20T10:46:04.475Z,59.94
2022-12-20T10:48:41.774Z,59.51
2022-12-20T10:51:17.120Z,59.32
2022-12-20T10:53:58.441Z,58.84
2022-12-20T10:56:32.961Z,58.60
2022-12-20T10:59:22.802Z,58.58
2022-12-20T11:01:55.200Z,59.63
2022-12-20T11:04:36.340Z,59.45
2022-12-20T11:07:27.469Z,59.25
2022-12-20T11:10:02.626Z,59.35
2022-12-20T11:12:35.150Z,59.40
2022-12-20T11:15:12.957Z,60.17
2022-12-20T11:17:51.995Z,59.79
2022-12-20T11:21:01.015Z,59.99
2022-12-20T11:23:41.958Z,59.89
2022-12-20T11:26:32.042Z,59.70
2022-12-20T11:29:23.363Z,59.44
2022-12-20T11:32:01.994Z,59.81
2022-12-20T11:34:40.118Z,59.38
2022-12-20T11:37:26.561Z,59.44
2022-12-20T11:40:23.925Z,59.51
2022-12-20T11:43:18.079Z,59.76
2022-12-20T11:46:12.709Z,60.03
2022-12-20T11:48:53.763Z,60.33
2022-12-20T11:51:34.675Z,60.65
2022-12-20T11:54:12.794Z,60.35
2022-12-20T11:56:48.378Z,61.33
2022-12-20T11:59:45.741Z,61.66
2022-12-20T12:02:27.009Z,61.63
2022-12-20T12:05:05.591Z,61.99
2022-12-20T12:07:40.425Z,61.36
2022-12-20T12:10:19.110Z,61.66
2022-12-20T12:13:28.680Z,61.31
2022-12-20T12:16:07.663Z,61.06
2022-12-20T12:18:42.621Z,61.36
2022-12-20T12:21:26.218Z,61.62
2022-12-20T12:24:22.543Z,61.70
2022-12-20T12:26:55.537Z,61.76
2022-12-20T12:29:31.165Z,61.54
2022-12-20T12:32:22.326Z,62.23
2022-12-20T12:35:13.486Z,62.33
2022-12-20T12:38:09.250Z,62.47
2022-12-20T12:40:52.817Z,62.62
2022-12-20T12:43:35.854Z,62.94
2022-12-20T12:46:28.757Z,63.25
2022-12-20T12:49:19.288Z,63.65
2022-12-20T12:51:56.114Z,63.61
2022-12-20T12:54:31.374Z,63.87
2022-12-20T12:57:15.491Z,63.93
2022-12-20T13:00:01.041Z,64.07
2022-12-20T13:02:36.887Z,64.03
2022-12-20T13:05:12.904Z,63.76
2022-12-20T13:07:45.611Z,63.87
2022-12-20T13:10:28.595Z,64.00
2022-12-20T13:13:02.629Z,63.66
2022-12-20T13:15:37.794Z,63.85
2022-12-20T13:18:18.962Z,63.75
2022-12-20T13:21:19.577Z,63.83
2022-12-20T13:23:54.865Z,64.01
2022-12-20T13:26:44.826Z,64.02
2022-12-20T13:29:31.689Z,64.04
2022-12-20T13:32:06.663Z,63.83
2022-12-20T13:34:54.396Z,63.44
2022-12-20T13:37:32.567Z,63.79
2022-12-20T13:40:07.011Z,64.08
2022-12-20T13:42:42.061Z,64.43
2022-12-20T13:45:15.666Z,64.46
2022-12-20T13:47:54.338Z,64.51
2022-12-20T13:50:35.915Z,64.67
2022-12-20T13:53:12.166Z,64.83
2022-12-20T13:55:44.509Z,64.03
2022-12-20T13:58:29.206Z,63.73
2022-12-20T14:01:09.741Z,64.08
2022-12-20T14:03:45.509Z,64.41
2022-12-20T14:06:26.289Z,64.48
2022-12-20T14:08:54.738Z,64.80
2022-12-20T14:11:28.569Z,64.90
2022-12-20T14:14:03.934Z,65.15
2022-12-20T14:16:37.742Z,65.45
2022-12-20T14:19:12.804Z,65.60
2022-12-20T14:21:47.035Z,65.78
2022-12-20T14:24:22.635Z,65.57
2022-12-20T14:26:56.446Z,65.60
2022-12-20T14:29:32.647Z,65.53
2022-12-20T14:32:06.438Z,65.78
2022-12-20T14:34:41.997Z,65.66
2022-12-20T14:37:34.224Z,66.01
2022-12-20T14:40:12.577Z,66.19
2022-12-20T14:42:47.002Z,66.01
2022-12-20T14:45:26.413Z,66.24
2022-12-20T14:48:06.828Z,66.61
2022-12-20T14:50:41.576Z,66.92
2022-12-20T14:53:20.530Z,67.20
2022-12-20T14:55:53.412Z,67.42
2022-12-20T14:58:33.606Z,67.54
2022-12-20T15:01:23.708Z,67.90
2022-12-20T15:04:01.463Z,67.93
2022-12-20T15:06:42.761Z,68.01
2022-12-20T15:09:15.179Z,67.99
2022-12-20T15:11:48.832Z,68.26
2022-12-20T15:14:36.823Z,68.63
2022-12-20T15:17:16.259Z,68.55
2022-12-20T15:19:49.035Z,68.65
2022-12-20T15:22:21.966Z,68.41
2022-12-20T15:24:54.570Z,68.53
2022-12-20T15:27:27.255Z,68.59
2022-12-20T15:29:59.500Z,68.65
2022-12-20T15:32:34.057Z,68.88
2022-12-20T15:35:06.399Z,68.92
2022-12-20T15:37:38.434Z,69.10
2022-12-20T15:40:14.609Z,69.15
2022-12-20T15:42:48.620Z,69.60
2022-12-20T15:45:21.548Z,69.63
2022-12-20T15:47:55.461Z,69.61
2022-12-20T15:50:28.002Z,69.62
2022-12-20T15:53:00.358Z,69.75
2022-12-20T15:55:39.453Z,70.06
2022-12-20T15:58:07.289Z,70.02
2022-12-20T16:00:42.271Z,70.12
2022-12-20T16:03:23.800Z,70.21
2022-12-20T16:05:57.234Z,70.33
2022-12-20T16:08:31.181Z,70.51
2022-12-20T16:11:03.446Z,70.50
2022-12-20T16:13:35.547Z,70.62
2022-12-20T16:16:08.613Z,70.62
2022-12-20T16:18:41.549Z,70.62
2022-12-20T16:21:19.020Z,70.55
2022-12-20T16:23:52.554Z,70.71
2022-12-20T16:26:26.446Z,70.83
2022-12-20T16:28:58.982Z,70.85
2022-12-20T16:31:37.362Z,70.98
2022-12-20T16:34:12.320Z,71.20
2022-12-20T16:36:45.309Z,71.45
2022-12-20T16:39:17.474Z,71.28
2022-12-20T16:41:50.161Z,71.25
2022-12-20T16:44:24.005Z,71.29
2022-12-20T16:46:56.631Z,71.33
2022-12-20T16:49:29.092Z,71.42
2022-12-20T16:52:01.494Z,71.46
2022-12-20T16:54:33.907Z,71.68
2022-12-20T16:57:07.192Z,71.47
2022-12-20T16:59:39.603Z,71.44
2022-12-20T17:02:33.175Z,71.50
2022-12-20T17:05:06.075Z,71.53
2022-12-20T17:07:41.575Z,71.47
2022-12-20T17:10:12.805Z,71.54
2022-12-20T17:12:45.072Z,71.63
2022-12-20T17:15:23.193Z,71.59
2022-12-20T17:17:55.866Z,71.40
2022-12-20T17:20:32.197Z,71.35
2022-12-20T17:25:54.091Z,70.96
2022-12-20T17:28:25.729Z,70.69
2022-12-20T17:31:04.011Z,70.75
2022-12-20T17:33:33.542Z,70.94
2022-12-20T17:36:06.114Z,71.06
2022-12-20T17:38:38.451Z,71.42
2022-12-20T17:41:28.492Z,71.54
2022-12-20T17:44:02.788Z,71.85
2022-12-20T17:46:34.944Z,72.00
2022-12-20T17:49:06.967Z,72.20
2022-12-20T17:51:39.147Z,72.29
2022-12-20T17:54:20.253Z,72.39
2022-12-20T17:56:53.845Z,72.47
2022-12-20T17:59:26.016Z,72.62
2022-12-20T18:01:58.330Z,72.64
2022-12-20T18:04:30.725Z,72.87
2022-12-20T18:07:05.072Z,72.80
2022-12-20T18:09:37.847Z,72.69
2022-12-20T18:12:11.559Z,72.65
2022-12-20T18:14:43.646Z,72.56
2022-12-20T18:17:15.988Z,72.59
2022-12-20T18:19:47.935Z,72.77
2022-12-20T18:22:19.869Z,72.74
2022-12-20T18:24:52.175Z,72.73
2022-12-20T18:27:30.289Z,72.75
2022-12-20T18:29:58.502Z,72.75
2022-12-20T18:32:30.601Z,72.77
2022-12-20T18:35:02.924Z,72.89
2022-12-20T18:37:35.071Z,72.97
2022-12-20T18:40:08.034Z,73.30
2022-12-20T18:42:40.221Z,73.43
2022-12-20T18:45:12.616Z,73.37
2022-12-20T18:47:44.641Z,73.43
2022-12-20T18:50:16.886Z,73.48
2022-12-20T18:52:49.094Z,73.46
2022-12-20T18:55:21.326Z,73.51
2022-12-20T18:57:53.374Z,73.58
2022-12-20T19:00:26.341Z,73.50
2022-12-20T19:03:00.582Z,73.15
2022-12-20T19:05:36.458Z,73.30
2022-12-20T19:08:08.833Z,73.20
2022-12-20T19:10:41.064Z,73.20
2022-12-20T19:13:13.091Z,73.26
2022-12-20T19:15:46.136Z,73.40
2022-12-20T19:18:18.071Z,73.49
2022-12-20T19:20:50.057Z,73.56
2022-12-20T19:23:22.843Z,73.54
2022-12-20T19:26:01.212Z,73.57
2022-12-20T19:28:29.272Z,73.50
2022-12-20T19:31:21.693Z,73.64
2022-12-20T19:33:51.423Z,73.37
2022-12-20T19:36:25.624Z,73.57
2022-12-20T19:38:59.829Z,73.49
2022-12-20T19:41:33.828Z,73.73
2022-12-20T19:44:06.349Z,73.84
2022-12-20T19:46:38.523Z,73.84
2022-12-20T19:49:12.209Z,73.85
2022-12-20T19:51:44.434Z,74.03
2022-12-20T19:54:17.440Z,74.12
2022-12-20T19:56:49.778Z,74.10
2022-12-20T19:59:21.957Z,74.25
2022-12-20T20:01:54.843Z,74.16
2022-12-20T20:04:27.439Z,74.06
2022-12-20T20:06:59.493Z,74.36
2022-12-20T20:09:31.719Z,74.36
2022-12-20T20:12:03.835Z,74.20
2022-12-20T20:14:37.848Z,73.99
2022-12-20T20:17:11.118Z,73.59
2022-12-20T20:19:43.347Z,73.63
2022-12-20T20:22:22.511Z,73.30
2022-12-20T20:24:48.570Z,73.38
2022-12-20T20:27:20.134Z,73.05
2022-12-20T20:29:53.018Z,72.24
2022-12-20T20:32:25.068Z,72.06
2022-12-20T20:34:57.308Z,72.35
2022-12-20T20:37:29.437Z,72.56
2022-12-20T20:40:01.661Z,72.63
2022-12-20T20:42:33.984Z,72.89
2022-12-20T20:45:06.911Z,72.88
2022-12-20T20:47:39.096Z,72.87
2022-12-20T20:50:11.399Z,72.95
2022-12-20T20:52:43.667Z,72.94
2022-12-20T20:55:16.275Z,73.16
2022-12-20T20:57:48.592Z,73.37
2022-12-20T21:00:20.853Z,73.77
2022-12-20T21:02:53.146Z,73.75
2022-12-20T21:07:59.408Z,73.37
2022-12-20T21:10:31.612Z,73.64
2022-12-20T21:13:03.689Z,73.78
2022-12-20T21:15:36.424Z,73.74
2022-12-20T21:18:08.608Z,73.60
2022-12-20T21:20:41.279Z,73.79
2022-12-20T21:23:13.448Z,73.66
2022-12-20T21:25:45.590Z,73.90
2022-12-20T21:28:21.502Z,73.94
2022-12-20T21:31:03.842Z,74.02
2022-12-20T21:33:36.633Z,74.26
2022-12-20T21:36:18.811Z,73.81
2022-12-20T21:38:52.438Z,73.79
2022-12-20T21:41:27.526Z,73.80
2022-12-20T21:44:01.519Z,73.74
2022-12-20T21:46:34.215Z,73.54
2022-12-20T21:49:06.361Z,73.67
2022-12-20T21:51:38.405Z,73.62
2022-12-20T21:54:11.232Z,73.58
2022-12-20T21:56:43.466Z,73.44
2022-12-20T21:59:15.724Z,73.50
2022-12-20T22:01:48.050Z,73.27
2022-12-20T22:04:20.342Z,73.44
2022-12-20T22:06:52.804Z,73.49
2022-12-20T22:09:25.408Z,73.51
2022-12-20T22:11:57.467Z,73.29
2022-12-20T22:14:29.552Z,73.42
2022-12-20T22:17:02.000Z,73.38
2022-12-20T22:19:35.371Z,73.31
2022-12-20T22:22:09.900Z,73.29
2022-12-20T22:24:41.919Z,73.59
2022-12-20T22:27:13.975Z,73.40
2022-12-20T22:29:47.468Z,73.57
2022-12-20T22:32:19.619Z,73.21
2022-12-20T22:34:54.273Z,73.18
2022-12-20T22:37:26.461Z,73.17
2022-12-20T22:39:58.636Z,73.46
2022-12-20T22:42:32.632Z,73.40
2022-12-20T22:45:06.440Z,73.46
2022-12-20T22:47:40.309Z,73.60
2022-12-20T22:50:12.803Z,73.60
2022-12-20T22:52:45.498Z,73.68
2022-12-20T22:55:17.836Z,73.58
2022-12-20T22:57:50.007Z,73.51
2022-12-20T23:00:22.680Z,73.49
2022-12-20T23:02:55.258Z,73.50
2022-12-20T23:05:27.609Z,73.30
2022-12-20T23:08:01.430Z,73.38
2022-12-20T23:10:51.872Z,73.33
2022-12-20T23:13:41.780Z,73.26
2022-12-20T23:16:14.339Z,73.28
2022-12-20T23:18:46.928Z,73.21
2022-12-20T23:21:36.713Z,73.14
2022-12-20T23:24:09.310Z,73.27
2022-12-20T23:26:42.626Z,73.31
2022-12-20T23:29:14.871Z,73.24
2022-12-20T23:31:47.507Z,73.39
2022-12-20T23:34:20.053Z,73.35
2022-12-20T23:36:52.245Z,73.21
2022-12-20T23:39:24.746Z,73.30
2022-12-20T23:41:57.379Z,73.43
2022-12-20T23:44:29.688Z,73.35
2022-12-20T23:47:01.912Z,73.22
2022-12-20T23:49:34.450Z,72.97
2022-12-20T23:52:07.236Z,72.90
2022-12-20T23:54:39.586Z,72.99
2022-12-20T23:57:12.552Z,72.84
2022-12-20T23:59:44.770Z,72.79
